sensor_id;sensor_type;location;lat;lon;timestamp;pressure;altitude;pressure_sealevel;temperature;humidity
63181;BME280;49273;37.772;-122.432;2022-11-12T00:00:48;101305.77;;;16.43;55.21
63181;BME280;49273;37.772;-122.432;2022-11-12T00:03:17;101303.56;;;16.37;56.04
63181;BME280;49273;37.772;-122.432;2022-11-12T00:05:46;101298.50;;;16.26;56.72
63181;BME280;49273;37.772;-122.432;2022-11-12T00:08:15;101291.26;;;16.15;56.79
63181;BME280;49273;37.772;-122.432;2022-11-12T00:10:44;101289.11;;;16.11;56.96
63181;BME280;49273;37.772;-122.432;2022-11-12T00:13:13;101288.26;;;16.03;56.53
63181;BME280;49273;37.772;-122.432;2022-11-12T00:15:41;101287.99;;;16.00;56.94
63181;BME280;49273;37.772;-122.432;2022-11-12T00:18:09;101284.87;;;15.80;57.22
63181;BME280;49273;37.772;-122.432;2022-11-12T00:20:37;101287.68;;;15.76;57.26
63181;BME280;49273;37.772;-122.432;2022-11-12T00:23:05;101285.64;;;15.67;57.52
63181;BME280;49273;37.772;-122.432;2022-11-12T00:25:34;101286.39;;;15.46;57.75
63181;BME280;49273;37.772;-122.432;2022-11-12T00:28:03;101283.63;;;15.38;58.48
63181;BME280;49273;37.772;-122.432;2022-11-12T00:30:32;101283.85;;;15.36;59.08
63181;BME280;49273;37.772;-122.432;2022-11-12T00:33:02;101284.96;;;15.22;60.35
63181;BME280;49273;37.772;-122.432;2022-11-12T00:35:31;101287.53;;;15.22;61.65
63181;BME280;49273;37.772;-122.432;2022-11-12T00:37:59;101281.63;;;15.23;61.80
63181;BME280;49273;37.772;-122.432;2022-11-12T00:40:28;101282.00;;;15.23;62.08
63181;BME280;49273;37.772;-122.432;2022-11-12T00:42:57;101285.20;;;15.10;61.25
63181;BME280;49273;37.772;-122.432;2022-11-12T00:45:24;101286.97;;;15.08;61.03
63181;BME280;49273;37.772;-122.432;2022-11-12T00:47:54;101290.85;;;14.91;61.66
63181;BME280;49273;37.772;-122.432;2022-11-12T00:50:23;101290.15;;;14.78;63.11
63181;BME280;49273;37.772;-122.432;2022-11-12T00:52:52;101288.39;;;14.67;64.34
63181;BME280;49273;37.772;-122.432;2022-11-12T00:55:19;101285.58;;;14.54;64.72
63181;BME280;49273;37.772;-122.432;2022-11-12T00:57:48;101281.98;;;14.51;65.36
63181;BME280;49273;37.772;-122.432;2022-11-12T01:00:17;101280.56;;;14.37;66.37
63181;BME280;49273;37.772;-122.432;2022-11-12T01:02:46;101286.68;;;14.32;66.86
63181;BME280;49273;37.772;-122.432;2022-11-12T01:05:15;101291.37;;;14.34;66.87
63181;BME280;49273;37.772;-122.432;2022-11-12T01:07:43;101293.94;;;14.27;67.21
63181;BME280;49273;37.772;-122.432;2022-11-12T01:10:11;101289.46;;;14.14;68.06
63181;BME280;49273;37.772;-122.432;2022-11-12T01:12:39;101287.55;;;14.11;67.93
63181;BME280;49273;37.772;-122.432;2022-11-12T01:15:08;101288.32;;;14.00;68.63
63181;BME280;49273;37.772;-122.432;2022-11-12T01:17:36;101288.93;;;13.99;68.95
63181;BME280;49273;37.772;-122.432;2022-11-12T01:20:05;101288.79;;;13.91;68.70
63181;BME280;49273;37.772;-122.432;2022-11-12T01:22:33;101285.35;;;13.73;69.37
63181;BME280;49273;37.772;-122.432;2022-11-12T01:25:01;101287.18;;;13.72;68.69
63181;BME280;49273;37.772;-122.432;2022-11-12T01:27:29;101287.46;;;13.72;68.60
63181;BME280;49273;37.772;-122.432;2022-11-12T01:29:57;101288.53;;;13.76;68.33
63181;BME280;49273;37.772;-122.432;2022-11-12T01:32:25;101286.74;;;13.62;68.58
63181;BME280;49273;37.772;-122.432;2022-11-12T01:34:53;101290.75;;;13.50;68.70
63181;BME280;49273;37.772;-122.432;2022-11-12T01:37:20;101288.83;;;13.43;68.64
63181;BME280;49273;37.772;-122.432;2022-11-12T01:39:48;101289.98;;;13.33;69.05
63181;BME280;49273;37.772;-122.432;2022-11-12T01:42:16;101293.11;;;13.36;69.18
63181;BME280;49273;37.772;-122.432;2022-11-12T01:44:46;101295.35;;;13.45;68.58
63181;BME280;49273;37.772;-122.432;2022-11-12T01:47:19;101291.10;;;13.39;68.36
63181;BME280;49273;37.772;-122.432;2022-11-12T01:49:53;101294.18;;;13.35;68.52
63181;BME280;49273;37.772;-122.432;2022-11-12T01:52:26;101294.91;;;13.30;68.63
63181;BME280;49273;37.772;-122.432;2022-11-12T01:54:58;101297.10;;;13.28;68.73
63181;BME280;49273;37.772;-122.432;2022-11-12T01:57:32;101294.48;;;13.36;68.24
63181;BME280;49273;37.772;-122.432;2022-11-12T02:00:07;101296.48;;;13.44;68.00
63181;BME280;49273;37.772;-122.432;2022-11-12T02:02:37;101299.00;;;13.30;68.00
63181;BME280;49273;37.772;-122.432;2022-11-12T02:05:09;101299.37;;;13.28;67.64
63181;BME280;49273;37.772;-122.432;2022-11-12T02:07:41;101301.76;;;13.16;67.60
63181;BME280;49273;37.772;-122.432;2022-11-12T02:10:09;101305.19;;;13.22;67.36
63181;BME280;49273;37.772;-122.432;2022-11-12T02:12:37;101308.93;;;13.29;66.99
63181;BME280;49273;37.772;-122.432;2022-11-12T02:15:06;101313.28;;;13.25;67.10
63181;BME280;49273;37.772;-122.432;2022-11-12T02:17:34;101314.14;;;13.22;66.99
63181;BME280;49273;37.772;-122.432;2022-11-12T02:20:03;101319.35;;;13.14;66.88
63181;BME280;49273;37.772;-122.432;2022-11-12T02:22:31;101321.27;;;13.12;66.99
63181;BME280;49273;37.772;-122.432;2022-11-12T02:24:59;101321.26;;;13.00;67.37
63181;BME280;49273;37.772;-122.432;2022-11-12T02:27:27;101322.05;;;13.14;67.12
63181;BME280;49273;37.772;-122.432;2022-11-12T02:29:56;101325.16;;;13.11;67.82
63181;BME280;49273;37.772;-122.432;2022-11-12T02:32:24;101324.05;;;13.04;67.52
63181;BME280;49273;37.772;-122.432;2022-11-12T02:34:52;101324.69;;;12.95;68.09
63181;BME280;49273;37.772;-122.432;2022-11-12T02:37:20;101322.69;;;13.01;68.20
63181;BME280;49273;37.772;-122.432;2022-11-12T02:39:48;101324.38;;;12.94;68.57
63181;BME280;49273;37.772;-122.432;2022-11-12T02:42:15;101325.85;;;13.00;68.51
63181;BME280;49273;37.772;-122.432;2022-11-12T02:44:43;101324.58;;;12.90;68.98
63181;BME280;49273;37.772;-122.432;2022-11-12T02:47:11;101322.74;;;12.87;69.18
63181;BME280;49273;37.772;-122.432;2022-11-12T02:49:39;101321.40;;;12.97;69.45
63181;BME280;49273;37.772;-122.432;2022-11-12T02:52:07;101323.70;;;12.97;68.91
63181;BME280;49273;37.772;-122.432;2022-11-12T02:54:36;101325.74;;;12.85;69.32
63181;BME280;49273;37.772;-122.432;2022-11-12T02:57:03;101322.27;;;13.00;69.07
63181;BME280;49273;37.772;-122.432;2022-11-12T02:59:31;101323.36;;;12.98;69.18
63181;BME280;49273;37.772;-122.432;2022-11-12T03:01:59;101324.04;;;12.82;69.36
63181;BME280;49273;37.772;-122.432;2022-11-12T03:04:27;101323.44;;;12.80;69.12
63181;BME280;49273;37.772;-122.432;2022-11-12T03:06:55;101323.18;;;12.79;69.02
63181;BME280;49273;37.772;-122.432;2022-11-12T03:09:23;101323.87;;;12.88;68.78
63181;BME280;49273;37.772;-122.432;2022-11-12T03:11:51;101325.39;;;12.86;68.65
63181;BME280;49273;37.772;-122.432;2022-11-12T03:14:19;101328.35;;;12.89;68.42
63181;BME280;49273;37.772;-122.432;2022-11-12T03:16:47;101328.68;;;12.87;68.32
63181;BME280;49273;37.772;-122.432;2022-11-12T03:19:15;101330.95;;;12.91;67.68
63181;BME280;49273;37.772;-122.432;2022-11-12T03:21:43;101328.02;;;12.99;67.28
63181;BME280;49273;37.772;-122.432;2022-11-12T03:24:11;101329.45;;;12.90;67.39
63181;BME280;49273;37.772;-122.432;2022-11-12T03:26:43;101327.16;;;12.81;67.81
63181;BME280;49273;37.772;-122.432;2022-11-12T03:29:11;101321.11;;;12.95;67.23
63181;BME280;49273;37.772;-122.432;2022-11-12T03:31:39;101318.94;;;12.91;66.58
63181;BME280;49273;37.772;-122.432;2022-11-12T03:34:09;101315.59;;;12.88;66.75
63181;BME280;49273;37.772;-122.432;2022-11-12T03:36:36;101317.29;;;12.79;65.84
63181;BME280;49273;37.772;-122.432;2022-11-12T03:39:05;101316.93;;;12.87;64.87
63181;BME280;49273;37.772;-122.432;2022-11-12T03:41:32;101316.50;;;12.94;65.05
63181;BME280;49273;37.772;-122.432;2022-11-12T03:44:01;101317.38;;;12.80;65.20
63181;BME280;49273;37.772;-122.432;2022-11-12T03:46:30;101320.87;;;12.91;64.13
63181;BME280;49273;37.772;-122.432;2022-11-12T03:48:58;101320.06;;;12.95;64.24
63181;BME280;49273;37.772;-122.432;2022-11-12T03:51:26;101317.36;;;12.80;64.13
63181;BME280;49273;37.772;-122.432;2022-11-12T03:53:53;101317.03;;;12.83;64.22
63181;BME280;49273;37.772;-122.432;2022-11-12T03:56:22;101310.75;;;12.78;64.72
63181;BME280;49273;37.772;-122.432;2022-11-12T03:58:49;101308.43;;;12.83;64.75
63181;BME280;49273;37.772;-122.432;2022-11-12T04:01:18;101313.03;;;12.82;64.51
63181;BME280;49273;37.772;-122.432;2022-11-12T04:03:45;101316.70;;;12.83;64.20
63181;BME280;49273;37.772;-122.432;2022-11-12T04:06:13;101319.07;;;12.75;64.62
63181;BME280;49273;37.772;-122.432;2022-11-12T04:08:41;101324.09;;;12.68;64.70
63181;BME280;49273;37.772;-122.432;2022-11-12T04:11:11;101320.46;;;12.80;64.10
63181;BME280;49273;37.772;-122.432;2022-11-12T04:13:40;101321.87;;;12.81;64.19
63181;BME280;49273;37.772;-122.432;2022-11-12T04:16:10;101323.73;;;12.69;64.20
63181;BME280;49273;37.772;-122.432;2022-11-12T04:18:39;101327.47;;;12.72;64.78
63181;BME280;49273;37.772;-122.432;2022-11-12T04:21:08;101328.61;;;12.63;65.73
63181;BME280;49273;37.772;-122.432;2022-11-12T04:23:39;101331.60;;;12.70;66.28
63181;BME280;49273;37.772;-122.432;2022-11-12T04:26:07;101328.33;;;12.58;67.08
63181;BME280;49273;37.772;-122.432;2022-11-12T04:28:36;101327.03;;;12.59;67.78
63181;BME280;49273;37.772;-122.432;2022-11-12T04:31:04;101326.98;;;12.62;68.40
63181;BME280;49273;37.772;-122.432;2022-11-12T04:33:32;101330.55;;;12.62;69.06
63181;BME280;49273;37.772;-122.432;2022-11-12T04:36:00;101331.40;;;12.45;70.03
63181;BME280;49273;37.772;-122.432;2022-11-12T04:38:28;101328.61;;;12.44;70.42
63181;BME280;49273;37.772;-122.432;2022-11-12T04:40:56;101326.38;;;12.32;71.29
63181;BME280;49273;37.772;-122.432;2022-11-12T04:43:24;101327.21;;;12.43;71.52
63181;BME280;49273;37.772;-122.432;2022-11-12T04:45:53;101328.20;;;12.48;71.49
63181;BME280;49273;37.772;-122.432;2022-11-12T04:48:23;101326.34;;;12.45;71.79
63181;BME280;49273;37.772;-122.432;2022-11-12T04:50:54;101326.13;;;12.42;71.99
63181;BME280;49273;37.772;-122.432;2022-11-12T04:53:24;101328.24;;;12.47;71.90
63181;BME280;49273;37.772;-122.432;2022-11-12T04:55:53;101326.23;;;12.32;72.22
63181;BME280;49273;37.772;-122.432;2022-11-12T04:58:22;101329.15;;;12.32;71.84
63181;BME280;49273;37.772;-122.432;2022-11-12T05:00:50;101329.49;;;12.42;70.99
63181;BME280;49273;37.772;-122.432;2022-11-12T05:03:18;101331.43;;;12.39;70.69
63181;BME280;49273;37.772;-122.432;2022-11-12T05:05:46;101335.17;;;12.34;70.50
63181;BME280;49273;37.772;-122.432;2022-11-12T05:08:14;101335.76;;;12.34;70.09
63181;BME280;49273;37.772;-122.432;2022-11-12T05:10:43;101338.26;;;12.36;69.37
63181;BME280;49273;37.772;-122.432;2022-11-12T05:13:12;101341.25;;;12.33;69.19
63181;BME280;49273;37.772;-122.432;2022-11-12T05:15:40;101337.37;;;12.25;68.89
63181;BME280;49273;37.772;-122.432;2022-11-12T05:18:10;101339.66;;;12.29;68.67
63181;BME280;49273;37.772;-122.432;2022-11-12T05:20:38;101340.27;;;12.46;68.00
63181;BME280;49273;37.772;-122.432;2022-11-12T05:23:06;101339.32;;;12.46;67.83
63181;BME280;49273;37.772;-122.432;2022-11-12T05:25:34;101336.93;;;12.44;68.15
63181;BME280;49273;37.772;-122.432;2022-11-12T05:28:03;101340.60;;;12.51;67.53
63181;BME280;49273;37.772;-122.432;2022-11-12T05:30:31;101341.04;;;12.46;67.77
63181;BME280;49273;37.772;-122.432;2022-11-12T05:32:59;101339.25;;;12.44;67.82
63181;BME280;49273;37.772;-122.432;2022-11-12T05:35:27;101331.99;;;12.41;67.95
63181;BME280;49273;37.772;-122.432;2022-11-12T05:37:55;101331.13;;;12.51;67.96
63181;BME280;49273;37.772;-122.432;2022-11-12T05:40:23;101334.81;;;12.46;68.19
63181;BME280;49273;37.772;-122.432;2022-11-12T05:42:51;101338.85;;;12.50;68.42
63181;BME280;49273;37.772;-122.432;2022-11-12T05:45:20;101339.62;;;12.42;68.57
63181;BME280;49273;37.772;-122.432;2022-11-12T05:47:48;101340.37;;;12.49;68.74
63181;BME280;49273;37.772;-122.432;2022-11-12T05:50:16;101340.99;;;12.43;68.97
63181;BME280;49273;37.772;-122.432;2022-11-12T05:52:44;101344.41;;;12.42;69.37
63181;BME280;49273;37.772;-122.432;2022-11-12T05:55:12;101344.00;;;12.30;69.84
63181;BME280;49273;37.772;-122.432;2022-11-12T05:57:40;101345.98;;;12.41;69.75
63181;BME280;49273;37.772;-122.432;2022-11-12T06:00:10;101348.17;;;12.39;70.17
63181;BME280;49273;37.772;-122.432;2022-11-12T06:02:38;101344.60;;;12.46;70.22
63181;BME280;49273;37.772;-122.432;2022-11-12T06:05:07;101344.95;;;12.46;70.08
63181;BME280;49273;37.772;-122.432;2022-11-12T06:07:35;101344.62;;;12.46;70.15
63181;BME280;49273;37.772;-122.432;2022-11-12T06:10:03;101345.17;;;12.40;70.48
63181;BME280;49273;37.772;-122.432;2022-11-12T06:12:31;101346.88;;;12.43;70.32
63181;BME280;49273;37.772;-122.432;2022-11-12T06:14:59;101346.96;;;12.44;70.11
63181;BME280;49273;37.772;-122.432;2022-11-12T06:17:27;101348.51;;;12.30;70.58
63181;BME280;49273;37.772;-122.432;2022-11-12T06:19:55;101349.32;;;12.48;70.42
63181;BME280;49273;37.772;-122.432;2022-11-12T06:22:23;101348.38;;;12.39;70.66
63181;BME280;49273;37.772;-122.432;2022-11-12T06:24:51;101345.89;;;12.38;70.61
63181;BME280;49273;37.772;-122.432;2022-11-12T06:27:19;101347.34;;;12.47;70.92
63181;BME280;49273;37.772;-122.432;2022-11-12T06:29:48;101346.57;;;12.39;70.86
63181;BME280;49273;37.772;-122.432;2022-11-12T06:32:17;101347.22;;;12.37;70.72
63181;BME280;49273;37.772;-122.432;2022-11-12T06:34:45;101339.50;;;12.29;71.18
63181;BME280;49273;37.772;-122.432;2022-11-12T06:37:13;101336.78;;;12.33;71.08
63181;BME280;49273;37.772;-122.432;2022-11-12T06:39:41;101336.94;;;12.36;71.43
63181;BME280;49273;37.772;-122.432;2022-11-12T06:42:09;101332.26;;;12.30;71.52
63181;BME280;49273;37.772;-122.432;2022-11-12T06:44:37;101331.56;;;12.24;72.38
63181;BME280;49273;37.772;-122.432;2022-11-12T06:47:05;101331.12;;;12.16;72.83
63181;BME280;49273;37.772;-122.432;2022-11-12T06:49:33;101335.34;;;12.20;72.43
63181;BME280;49273;37.772;-122.432;2022-11-12T06:52:01;101337.23;;;12.32;72.03
63181;BME280;49273;37.772;-122.432;2022-11-12T06:54:30;101331.22;;;12.33;71.96
63181;BME280;49273;37.772;-122.432;2022-11-12T06:56:58;101332.13;;;12.40;72.35
63181;BME280;49273;37.772;-122.432;2022-11-12T06:59:25;101332.22;;;12.24;72.68
63181;BME280;49273;37.772;-122.432;2022-11-12T07:01:54;101332.00;;;12.19;72.90
63181;BME280;49273;37.772;-122.432;2022-11-12T07:04:23;101332.14;;;12.17;72.83
63181;BME280;49273;37.772;-122.432;2022-11-12T07:06:51;101335.62;;;12.22;73.22
63181;BME280;49273;37.772;-122.432;2022-11-12T07:09:19;101336.34;;;12.35;72.31
63181;BME280;49273;37.772;-122.432;2022-11-12T07:11:48;101339.67;;;12.37;72.35
63181;BME280;49273;37.772;-122.432;2022-11-12T07:14:16;101341.10;;;12.24;72.82
63181;BME280;49273;37.772;-122.432;2022-11-12T07:16:43;101338.96;;;12.15;73.14
63181;BME280;49273;37.772;-122.432;2022-11-12T07:19:11;101346.34;;;12.12;73.53
63181;BME280;49273;37.772;-122.432;2022-11-12T07:21:39;101353.12;;;12.14;73.18
63181;BME280;49273;37.772;-122.432;2022-11-12T07:24:08;101357.49;;;12.16;73.27
63181;BME280;49273;37.772;-122.432;2022-11-12T07:26:36;101354.99;;;12.14;73.51
63181;BME280;49273;37.772;-122.432;2022-11-12T07:29:04;101351.25;;;12.14;73.47
63181;BME280;49273;37.772;-122.432;2022-11-12T07:31:32;101351.97;;;12.17;73.35
63181;BME280;49273;37.772;-122.432;2022-11-12T07:34:00;101350.43;;;12.14;73.59
63181;BME280;49273;37.772;-122.432;2022-11-12T07:36:28;101349.93;;;12.05;74.05
63181;BME280;49273;37.772;-122.432;2022-11-12T07:38:57;101352.93;;;12.16;73.59
63181;BME280;49273;37.772;-122.432;2022-11-12T07:41:25;101350.78;;;12.13;73.82
63181;BME280;49273;37.772;-122.432;2022-11-12T07:43:53;101348.31;;;12.04;74.57
63181;BME280;49273;37.772;-122.432;2022-11-12T07:46:23;101348.30;;;12.13;74.32
63181;BME280;49273;37.772;-122.432;2022-11-12T07:48:52;101347.23;;;12.11;74.05
63181;BME280;49273;37.772;-122.432;2022-11-12T07:51:22;101343.26;;;12.03;74.51
63181;BME280;49273;37.772;-122.432;2022-11-12T07:53:52;101342.31;;;11.92;74.98
63181;BME280;49273;37.772;-122.432;2022-11-12T07:56:22;101345.44;;;11.86;75.55
63181;BME280;49273;37.772;-122.432;2022-11-12T07:58:51;101346.39;;;11.91;75.93
63181;BME280;49273;37.772;-122.432;2022-11-12T08:01:23;101347.95;;;11.87;76.03
63181;BME280;49273;37.772;-122.432;2022-11-12T08:03:52;101349.47;;;11.92;76.08
63181;BME280;49273;37.772;-122.432;2022-11-12T08:06:20;101347.40;;;11.99;76.08
63181;BME280;49273;37.772;-122.432;2022-11-12T08:08:51;101352.16;;;11.92;76.35
63181;BME280;49273;37.772;-122.432;2022-11-12T08:11:19;101347.90;;;11.93;76.24
63181;BME280;49273;37.772;-122.432;2022-11-12T08:13:47;101345.50;;;11.86;76.26
63181;BME280;49273;37.772;-122.432;2022-11-12T08:16:16;101339.25;;;11.91;76.41
63181;BME280;49273;37.772;-122.432;2022-11-12T08:18:45;101338.43;;;11.78;76.53
63181;BME280;49273;37.772;-122.432;2022-11-12T08:21:15;101334.21;;;11.71;76.50
63181;BME280;49273;37.772;-122.432;2022-11-12T08:23:44;101334.07;;;11.73;76.45
63181;BME280;49273;37.772;-122.432;2022-11-12T08:26:14;101334.65;;;11.77;76.44
63181;BME280;49273;37.772;-122.432;2022-11-12T08:28:43;101330.73;;;11.56;76.67
63181;BME280;49273;37.772;-122.432;2022-11-12T08:31:12;101327.06;;;11.80;76.02
63181;BME280;49273;37.772;-122.432;2022-11-12T08:33:42;101329.06;;;11.67;75.68
63181;BME280;49273;37.772;-122.432;2022-11-12T08:36:12;101328.76;;;11.62;76.58
63181;BME280;49273;37.772;-122.432;2022-11-12T08:38:41;101330.22;;;11.54;76.60
63181;BME280;49273;37.772;-122.432;2022-11-12T08:41:11;101328.45;;;11.73;76.12
63181;BME280;49273;37.772;-122.432;2022-11-12T08:43:40;101328.88;;;11.61;76.42
63181;BME280;49273;37.772;-122.432;2022-11-12T08:46:09;101329.50;;;11.67;76.46
63181;BME280;49273;37.772;-122.432;2022-11-12T08:48:38;101326.01;;;11.65;76.27
63181;BME280;49273;37.772;-122.432;2022-11-12T08:51:06;101329.18;;;11.57;76.49
63181;BME280;49273;37.772;-122.432;2022-11-12T08:53:35;101323.55;;;11.61;76.74
63181;BME280;49273;37.772;-122.432;2022-11-12T08:56:03;101323.43;;;11.55;76.44
63181;BME280;49273;37.772;-122.432;2022-11-12T08:58:31;101323.81;;;11.52;77.08
63181;BME280;49273;37.772;-122.432;2022-11-12T09:01:06;101322.40;;;11.79;76.07
63181;BME280;49273;37.772;-122.432;2022-11-12T09:03:35;101321.68;;;11.70;75.88
63181;BME280;49273;37.772;-122.432;2022-11-12T09:06:04;101319.80;;;11.68;76.00
63181;BME280;49273;37.772;-122.432;2022-11-12T09:08:34;101314.77;;;11.72;75.93
63181;BME280;49273;37.772;-122.432;2022-11-12T09:11:03;101314.51;;;11.80;75.82
63181;BME280;49273;37.772;-122.432;2022-11-12T09:13:31;101310.53;;;11.75;76.03
63181;BME280;49273;37.772;-122.432;2022-11-12T09:16:06;101312.68;;;11.81;76.12
63181;BME280;49273;37.772;-122.432;2022-11-12T09:18:36;101320.57;;;12.03;74.66
63181;BME280;49273;37.772;-122.432;2022-11-12T09:21:05;101322.50;;;12.00;74.57
63181;BME280;49273;37.772;-122.432;2022-11-12T09:23:34;101322.71;;;11.98;74.70
63181;BME280;49273;37.772;-122.432;2022-11-12T09:26:03;101325.80;;;12.12;74.54
63181;BME280;49273;37.772;-122.432;2022-11-12T09:28:32;101325.92;;;12.22;74.15
63181;BME280;49273;37.772;-122.432;2022-11-12T09:31:01;101329.80;;;12.27;74.27
63181;BME280;49273;37.772;-122.432;2022-11-12T09:33:31;101328.77;;;12.29;74.36
63181;BME280;49273;37.772;-122.432;2022-11-12T09:36:02;101328.70;;;12.21;74.96
63181;BME280;49273;37.772;-122.432;2022-11-12T09:38:30;101327.72;;;12.23;75.56
63181;BME280;49273;37.772;-122.432;2022-11-12T09:41:08;101328.65;;;12.24;75.43
63181;BME280;49273;37.772;-122.432;2022-11-12T09:43:43;101328.95;;;12.31;75.29
63181;BME280;49273;37.772;-122.432;2022-11-12T09:46:25;101330.65;;;12.31;74.93
63181;BME280;49273;37.772;-122.432;2022-11-12T09:49:01;101335.93;;;12.23;75.64
63181;BME280;49273;37.772;-122.432;2022-11-12T09:51:33;101329.85;;;12.27;75.24
63181;BME280;49273;37.772;-122.432;2022-11-12T09:54:09;101325.03;;;12.20;75.96
63181;BME280;49273;37.772;-122.432;2022-11-12T09:56:39;101326.69;;;12.25;75.84
63181;BME280;49273;37.772;-122.432;2022-11-12T09:59:11;101327.00;;;12.32;76.03
63181;BME280;49273;37.772;-122.432;2022-11-12T10:01:47;101326.53;;;12.46;75.14
63181;BME280;49273;37.772;-122.432;2022-11-12T10:04:33;101316.29;;;12.33;75.69
63181;BME280;49273;37.772;-122.432;2022-11-12T10:07:10;101318.50;;;12.57;74.94
63181;BME280;49273;37.772;-122.432;2022-11-12T10:09:47;101323.08;;;12.58;74.75
63181;BME280;49273;37.772;-122.432;2022-11-12T10:12:23;101322.45;;;12.44;75.88
63181;BME280;49273;37.772;-122.432;2022-11-12T10:15:10;101323.88;;;12.60;75.46
63181;BME280;49273;37.772;-122.432;2022-11-12T10:17:47;101319.92;;;12.67;74.83
63181;BME280;49273;37.772;-122.432;2022-11-12T10:20:21;101321.58;;;12.72;74.65
63181;BME280;49273;37.772;-122.432;2022-11-12T10:23:02;101324.07;;;12.71;74.78
63181;BME280;49273;37.772;-122.432;2022-11-12T10:25:32;101329.98;;;12.70;74.96
63181;BME280;49273;37.772;-122.432;2022-11-12T10:28:06;101330.93;;;12.70;74.95
63181;BME280;49273;37.772;-122.432;2022-11-12T10:30:39;101328.64;;;12.69;76.02
63181;BME280;49273;37.772;-122.432;2022-11-12T10:33:12;101328.71;;;12.81;74.41
63181;BME280;49273;37.772;-122.432;2022-11-12T10:35:40;101330.49;;;12.70;75.12
63181;BME280;49273;37.772;-122.432;2022-11-12T10:38:14;101334.90;;;12.49;76.15
63181;BME280;49273;37.772;-122.432;2022-11-12T10:40:45;101341.72;;;12.68;76.39
63181;BME280;49273;37.772;-122.432;2022-11-12T10:43:22;101345.85;;;12.81;75.16
63181;BME280;49273;37.772;-122.432;2022-11-12T10:45:51;101351.77;;;12.75;75.86
63181;BME280;49273;37.772;-122.432;2022-11-12T10:48:24;101354.87;;;12.79;75.68
63181;BME280;49273;37.772;-122.432;2022-11-12T10:50:54;101356.38;;;12.86;77.36
63181;BME280;49273;37.772;-122.432;2022-11-12T10:53:32;101361.63;;;12.80;79.79
63181;BME280;49273;37.772;-122.432;2022-11-12T10:56:02;101370.55;;;12.83;81.91
63181;BME280;49273;37.772;-122.432;2022-11-12T10:58:31;101362.98;;;12.45;84.03
63181;BME280;49273;37.772;-122.432;2022-11-12T11:01:00;101362.90;;;12.30;86.69
63181;BME280;49273;37.772;-122.432;2022-11-12T11:03:32;101364.37;;;12.33;87.28
63181;BME280;49273;37.772;-122.432;2022-11-12T11:06:03;101368.93;;;12.26;88.44
63181;BME280;49273;37.772;-122.432;2022-11-12T11:08:34;101370.57;;;12.18;89.86
63181;BME280;49273;37.772;-122.432;2022-11-12T11:11:22;101370.74;;;12.02;91.08
63181;BME280;49273;37.772;-122.432;2022-11-12T11:13:53;101371.82;;;11.95;92.49
63181;BME280;49273;37.772;-122.432;2022-11-12T11:16:23;101376.75;;;11.99;93.25
63181;BME280;49273;37.772;-122.432;2022-11-12T11:18:55;101382.46;;;12.03;94.64
63181;BME280;49273;37.772;-122.432;2022-11-12T11:21:37;101375.63;;;11.97;95.32
63181;BME280;49273;37.772;-122.432;2022-11-12T11:24:23;101376.15;;;12.05;95.78
63181;BME280;49273;37.772;-122.432;2022-11-12T11:27:01;101377.32;;;11.98;95.20
63181;BME280;49273;37.772;-122.432;2022-11-12T11:30:07;101372.74;;;12.02;95.69
63181;BME280;49273;37.772;-122.432;2022-11-12T11:32:52;101374.08;;;11.91;95.92
63181;BME280;49273;37.772;-122.432;2022-11-12T11:35:34;101375.17;;;11.98;96.22
63181;BME280;49273;37.772;-122.432;2022-11-12T11:38:18;101374.37;;;11.91;96.15
63181;BME280;49273;37.772;-122.432;2022-11-12T11:40:54;101364.87;;;11.86;97.29
63181;BME280;49273;37.772;-122.432;2022-11-12T11:43:39;101360.29;;;11.90;96.07
63181;BME280;49273;37.772;-122.432;2022-11-12T11:46:18;101362.46;;;11.95;96.84
63181;BME280;49273;37.772;-122.432;2022-11-12T11:49:06;101360.04;;;11.70;97.86
63181;BME280;49273;37.772;-122.432;2022-11-12T11:51:51;101359.26;;;11.77;98.84
63181;BME280;49273;37.772;-122.432;2022-11-12T11:54:40;101353.10;;;11.70;99.68
63181;BME280;49273;37.772;-122.432;2022-11-12T11:57:14;101343.65;;;11.63;100.00
63181;BME280;49273;37.772;-122.432;2022-11-12T11:59:54;101345.83;;;11.74;99.51
63181;BME280;49273;37.772;-122.432;2022-11-12T12:03:40;101351.93;;;11.78;99.14
63181;BME280;49273;37.772;-122.432;2022-11-12T12:06:22;101359.42;;;11.61;99.48
63181;BME280;49273;37.772;-122.432;2022-11-12T12:09:01;101362.21;;;11.65;99.28
63181;BME280;49273;37.772;-122.432;2022-11-12T12:11:36;101359.86;;;11.54;99.69
63181;BME280;49273;37.772;-122.432;2022-11-12T12:14:22;101356.86;;;11.59;99.46
63181;BME280;49273;37.772;-122.432;2022-11-12T12:16:59;101356.00;;;11.65;99.04
63181;BME280;49273;37.772;-122.432;2022-11-12T12:19:42;101357.63;;;11.53;99.11
63181;BME280;49273;37.772;-122.432;2022-11-12T12:22:20;101354.82;;;11.50;99.75
63181;BME280;49273;37.772;-122.432;2022-11-12T12:24:55;101356.20;;;11.63;99.03
63181;BME280;49273;37.772;-122.432;2022-11-12T12:27:28;101361.15;;;11.43;99.78
63181;BME280;49273;37.772;-122.432;2022-11-12T12:30:01;101358.65;;;11.31;100.00
63181;BME280;49273;37.772;-122.432;2022-11-12T12:32:34;101353.66;;;11.26;100.00
63181;BME280;49273;37.772;-122.432;2022-11-12T12:35:18;101349.68;;;11.20;100.00
63181;BME280;49273;37.772;-122.432;2022-11-12T12:37:55;101356.51;;;11.23;100.00